sensor_id;sensor_type;location;lat;lon;timestamp;P1;durP1;ratioP1;P2;durP2;ratioP2
27225;SDS011;14732;51.074;3.788;2023-02-01T00:00:15;20.48;;;5.55;;
27225;SDS011;14732;51.074;3.788;2023-02-01T00:02:41;24.40;;;5.50;;
27225;SDS011;14732;51.074;3.788;2023-02-01T00:05:10;23.63;;;5.00;;
27225;SDS011;14732;51.074;3.788;2023-02-01T00:07:36;22.55;;;5.00;;
27225;SDS011;14732;51.074;3.788;2023-02-01T00:10:02;19.88;;;5.25;;
27225;SDS011;14732;51.074;3.788;2023-02-01T00:12:29;19.80;;;5.55;;
27225;SDS011;14732;51.074;3.788;2023-02-01T00:14:55;17.55;;;4.40;;
27225;SDS011;14732;51.074;3.788;2023-02-01T00:17:21;22.27;;;4.93;;
27225;SDS011;14732;51.074;3.788;2023-02-01T00:19:47;25.15;;;4.88;;
27225;SDS011;14732;51.074;3.788;2023-02-01T00:22:12;23.50;;;4.43;;
27225;SDS011;14732;51.074;3.788;2023-02-01T00:24:38;27.73;;;4.70;;
27225;SDS011;14732;51.074;3.788;2023-02-01T00:27:03;21.98;;;4.35;;
27225;SDS011;14732;51.074;3.788;2023-02-01T00:29:29;22.30;;;4.22;;
27225;SDS011;14732;51.074;3.788;2023-02-01T00:31:55;22.95;;;4.18;;
27225;SDS011;14732;51.074;3.788;2023-02-01T00:34:20;18.52;;;4.00;;
27225;SDS011;14732;51.074;3.788;2023-02-01T00:36:46;18.52;;;3.80;;
27225;SDS011;14732;51.074;3.788;2023-02-01T00:39:12;18.88;;;4.10;;
27225;SDS011;14732;51.074;3.788;2023-02-01T00:41:38;21.70;;;4.00;;
27225;SDS011;14732;51.074;3.788;2023-02-01T00:44:05;14.88;;;3.85;;
27225;SDS011;14732;51.074;3.788;2023-02-01T00:46:31;27.50;;;4.10;;
27225;SDS011;14732;51.074;3.788;2023-02-01T00:48:57;23.17;;;3.70;;
27225;SDS011;14732;51.074;3.788;2023-02-01T00:51:24;24.52;;;4.10;;
27225;SDS011;14732;51.074;3.788;2023-02-01T00:53:51;24.73;;;4.35;;
27225;SDS011;14732;51.074;3.788;2023-02-01T00:56:17;16.63;;;3.70;;
27225;SDS011;14732;51.074;3.788;2023-02-01T00:58:43;19.08;;;3.63;;
27225;SDS011;14732;51.074;3.788;2023-02-01T01:03:43;25.77;;;3.95;;
27225;SDS011;14732;51.074;3.788;2023-02-01T01:06:14;24.60;;;3.88;;
27225;SDS011;14732;51.074;3.788;2023-02-01T01:08:41;22.45;;;3.45;;
27225;SDS011;14732;51.074;3.788;2023-02-01T01:11:12;15.90;;;3.50;;
27225;SDS011;14732;51.074;3.788;2023-02-01T01:13:40;23.30;;;3.67;;
27225;SDS011;14732;51.074;3.788;2023-02-01T01:16:07;21.10;;;3.70;;
27225;SDS011;14732;51.074;3.788;2023-02-01T01:18:33;24.23;;;3.85;;
27225;SDS011;14732;51.074;3.788;2023-02-01T01:21:00;19.33;;;4.00;;
27225;SDS011;14732;51.074;3.788;2023-02-01T01:23:27;24.75;;;3.90;;
27225;SDS011;14732;51.074;3.788;2023-02-01T01:25:53;22.10;;;3.40;;
27225;SDS011;14732;51.074;3.788;2023-02-01T01:28:19;25.50;;;3.88;;
27225;SDS011;14732;51.074;3.788;2023-02-01T01:30:44;19.40;;;3.10;;
27225;SDS011;14732;51.074;3.788;2023-02-01T01:33:11;23.50;;;3.63;;
27225;SDS011;14732;51.074;3.788;2023-02-01T01:35:36;17.17;;;3.25;;
27225;SDS011;14732;51.074;3.788;2023-02-01T01:38:02;18.27;;;3.50;;
27225;SDS011;14732;51.074;3.788;2023-02-01T01:40:29;22.35;;;3.55;;
27225;SDS011;14732;51.074;3.788;2023-02-01T01:42:55;23.17;;;3.55;;
27225;SDS011;14732;51.074;3.788;2023-02-01T01:47:56;22.50;;;3.53;;
27225;SDS011;14732;51.074;3.788;2023-02-01T01:50:31;21.42;;;3.33;;
27225;SDS011;14732;51.074;3.788;2023-02-01T01:53:02;24.58;;;3.60;;
27225;SDS011;14732;51.074;3.788;2023-02-01T01:55:31;13.38;;;2.55;;
27225;SDS011;14732;51.074;3.788;2023-02-01T01:58:02;17.90;;;2.97;;
27225;SDS011;14732;51.074;3.788;2023-02-01T02:00:30;20.27;;;3.05;;
27225;SDS011;14732;51.074;3.788;2023-02-01T02:03:00;20.83;;;3.67;;
27225;SDS011;14732;51.074;3.788;2023-02-01T02:05:32;16.63;;;3.45;;
27225;SDS011;14732;51.074;3.788;2023-02-01T02:07:59;18.05;;;3.15;;
27225;SDS011;14732;51.074;3.788;2023-02-01T02:10:27;21.08;;;3.47;;
27225;SDS011;14732;51.074;3.788;2023-02-01T02:13:12;17.20;;;2.85;;
27225;SDS011;14732;51.074;3.788;2023-02-01T02:15:41;25.77;;;3.72;;
27225;SDS011;14732;51.074;3.788;2023-02-01T02:18:15;24.52;;;3.70;;
27225;SDS011;14732;51.074;3.788;2023-02-01T02:24:01;22.67;;;3.30;;
27225;SDS011;14732;51.074;3.788;2023-02-01T02:26:50;22.45;;;4.15;;
27225;SDS011;14732;51.074;3.788;2023-02-01T02:29:36;22.75;;;3.45;;
27225;SDS011;14732;51.074;3.788;2023-02-01T02:35:23;20.15;;;3.25;;
27225;SDS011;14732;51.074;3.788;2023-02-01T02:38:06;22.58;;;3.53;;
27225;SDS011;14732;51.074;3.788;2023-02-01T02:41:01;18.55;;;3.28;;
27225;SDS011;14732;51.074;3.788;2023-02-01T02:43:31;24.55;;;3.83;;
27225;SDS011;14732;51.074;3.788;2023-02-01T02:46:40;15.00;;;3.38;;
27225;SDS011;14732;51.074;3.788;2023-02-01T02:52:13;21.20;;;4.05;;
27225;SDS011;14732;51.074;3.788;2023-02-01T02:55:03;22.27;;;3.67;;
27225;SDS011;14732;51.074;3.788;2023-02-01T02:57:37;20.58;;;3.90;;
27225;SDS011;14732;51.074;3.788;2023-02-01T03:00:24;19.23;;;3.35;;
27225;SDS011;14732;51.074;3.788;2023-02-01T03:03:12;24.40;;;3.30;;
27225;SDS011;14732;51.074;3.788;2023-02-01T03:05:57;18.63;;;3.20;;
27225;SDS011;14732;51.074;3.788;2023-02-01T03:08:27;21.75;;;3.70;;
27225;SDS011;14732;51.074;3.788;2023-02-01T03:13:40;19.35;;;3.05;;
27225;SDS011;14732;51.074;3.788;2023-02-01T03:24:18;19.13;;;3.38;;
27225;SDS011;14732;51.074;3.788;2023-02-01T03:26:58;30.50;;;3.28;;
27225;SDS011;14732;51.074;3.788;2023-02-01T03:29:40;22.25;;;3.10;;
27225;SDS011;14732;51.074;3.788;2023-02-01T03:32:19;21.10;;;3.42;;
27225;SDS011;14732;51.074;3.788;2023-02-01T03:34:45;23.23;;;3.55;;
27225;SDS011;14732;51.074;3.788;2023-02-01T03:37:12;20.88;;;3.30;;
27225;SDS011;14732;51.074;3.788;2023-02-01T03:39:48;24.02;;;3.35;;
27225;SDS011;14732;51.074;3.788;2023-02-01T03:42:18;15.75;;;3.40;;
27225;SDS011;14732;51.074;3.788;2023-02-01T03:44:55;17.30;;;3.22;;
27225;SDS011;14732;51.074;3.788;2023-02-01T03:47:30;28.83;;;3.67;;
27225;SDS011;14732;51.074;3.788;2023-02-01T03:50:03;25.27;;;4.00;;
27225;SDS011;14732;51.074;3.788;2023-02-01T03:52:37;23.10;;;3.03;;
27225;SDS011;14732;51.074;3.788;2023-02-01T03:55:10;20.15;;;3.03;;
27225;SDS011;14732;51.074;3.788;2023-02-01T03:57:41;15.23;;;2.85;;
27225;SDS011;14732;51.074;3.788;2023-02-01T04:00:19;21.67;;;3.22;;
27225;SDS011;14732;51.074;3.788;2023-02-01T04:02:47;25.33;;;3.20;;
27225;SDS011;14732;51.074;3.788;2023-02-01T04:05:13;14.95;;;2.78;;
27225;SDS011;14732;51.074;3.788;2023-02-01T04:07:39;23.42;;;3.42;;
27225;SDS011;14732;51.074;3.788;2023-02-01T04:10:05;24.15;;;3.15;;
27225;SDS011;14732;51.074;3.788;2023-02-01T04:12:32;20.73;;;3.63;;
27225;SDS011;14732;51.074;3.788;2023-02-01T04:14:57;19.83;;;3.70;;
27225;SDS011;14732;51.074;3.788;2023-02-01T04:17:23;17.13;;;3.00;;
27225;SDS011;14732;51.074;3.788;2023-02-01T04:19:49;22.25;;;3.13;;
27225;SDS011;14732;51.074;3.788;2023-02-01T04:22:14;20.67;;;3.33;;
27225;SDS011;14732;51.074;3.788;2023-02-01T04:24:40;25.42;;;3.70;;
27225;SDS011;14732;51.074;3.788;2023-02-01T04:27:06;24.38;;;3.45;;
27225;SDS011;14732;51.074;3.788;2023-02-01T04:29:32;27.92;;;3.78;;
27225;SDS011;14732;51.074;3.788;2023-02-01T04:31:58;22.92;;;3.95;;
27225;SDS011;14732;51.074;3.788;2023-02-01T04:34:23;22.25;;;3.88;;
27225;SDS011;14732;51.074;3.788;2023-02-01T04:36:50;28.55;;;3.63;;
27225;SDS011;14732;51.074;3.788;2023-02-01T04:39:16;20.83;;;3.58;;
27225;SDS011;14732;51.074;3.788;2023-02-01T04:41:42;23.70;;;3.60;;
27225;SDS011;14732;51.074;3.788;2023-02-01T04:44:12;22.38;;;3.50;;
27225;SDS011;14732;51.074;3.788;2023-02-01T04:46:39;18.23;;;3.45;;
27225;SDS011;14732;51.074;3.788;2023-02-01T04:49:05;21.63;;;3.35;;
27225;SDS011;14732;51.074;3.788;2023-02-01T04:51:31;25.70;;;3.35;;
27225;SDS011;14732;51.074;3.788;2023-02-01T04:53:57;18.73;;;2.80;;
27225;SDS011;14732;51.074;3.788;2023-02-01T04:56:23;23.20;;;3.08;;
27225;SDS011;14732;51.074;3.788;2023-02-01T04:58:48;19.13;;;3.33;;
27225;SDS011;14732;51.074;3.788;2023-02-01T05:01:14;22.33;;;4.15;;
27225;SDS011;14732;51.074;3.788;2023-02-01T05:03:40;16.88;;;3.58;;
27225;SDS011;14732;51.074;3.788;2023-02-01T05:06:05;23.48;;;3.25;;
27225;SDS011;14732;51.074;3.788;2023-02-01T05:08:31;24.20;;;3.83;;
27225;SDS011;14732;51.074;3.788;2023-02-01T05:10:57;23.35;;;3.78;;
27225;SDS011;14732;51.074;3.788;2023-02-01T05:13:24;18.35;;;3.47;;
27225;SDS011;14732;51.074;3.788;2023-02-01T05:16:09;23.70;;;3.80;;
27225;SDS011;14732;51.074;3.788;2023-02-01T05:18:34;34.97;;;3.85;;
27225;SDS011;14732;51.074;3.788;2023-02-01T05:21:00;21.63;;;3.42;;
27225;SDS011;14732;51.074;3.788;2023-02-01T05:23:26;28.92;;;3.90;;
27225;SDS011;14732;51.074;3.788;2023-02-01T05:25:52;19.95;;;3.15;;
27225;SDS011;14732;51.074;3.788;2023-02-01T05:28:27;19.65;;;3.22;;
27225;SDS011;14732;51.074;3.788;2023-02-01T05:30:53;24.55;;;4.05;;
27225;SDS011;14732;51.074;3.788;2023-02-01T05:33:19;23.33;;;3.00;;
27225;SDS011;14732;51.074;3.788;2023-02-01T05:35:45;24.33;;;3.47;;
27225;SDS011;14732;51.074;3.788;2023-02-01T05:38:10;24.00;;;3.80;;
27225;SDS011;14732;51.074;3.788;2023-02-01T05:40:36;24.85;;;3.08;;
27225;SDS011;14732;51.074;3.788;2023-02-01T05:43:02;28.65;;;4.07;;
27225;SDS011;14732;51.074;3.788;2023-02-01T05:45:28;17.65;;;3.20;;
27225;SDS011;14732;51.074;3.788;2023-02-01T05:47:53;17.92;;;3.17;;
27225;SDS011;14732;51.074;3.788;2023-02-01T05:50:19;27.00;;;2.90;;
27225;SDS011;14732;51.074;3.788;2023-02-01T05:52:44;24.02;;;3.55;;
27225;SDS011;14732;51.074;3.788;2023-02-01T05:55:10;21.27;;;3.95;;
27225;SDS011;14732;51.074;3.788;2023-02-01T05:57:36;29.75;;;3.78;;
27225;SDS011;14732;51.074;3.788;2023-02-01T06:00:02;15.60;;;2.75;;
27225;SDS011;14732;51.074;3.788;2023-02-01T06:02:28;22.45;;;3.85;;
27225;SDS011;14732;51.074;3.788;2023-02-01T06:04:54;22.98;;;3.47;;
27225;SDS011;14732;51.074;3.788;2023-02-01T06:07:20;23.73;;;3.47;;
27225;SDS011;14732;51.074;3.788;2023-02-01T06:09:46;20.23;;;3.53;;
27225;SDS011;14732;51.074;3.788;2023-02-01T06:12:12;28.17;;;3.40;;
27225;SDS011;14732;51.074;3.788;2023-02-01T06:14:38;29.17;;;3.30;;
27225;SDS011;14732;51.074;3.788;2023-02-01T06:17:04;19.48;;;3.60;;
27225;SDS011;14732;51.074;3.788;2023-02-01T06:19:31;28.48;;;4.05;;
27225;SDS011;14732;51.074;3.788;2023-02-01T06:21:56;23.27;;;3.53;;
27225;SDS011;14732;51.074;3.788;2023-02-01T06:24:22;20.73;;;3.55;;
27225;SDS011;14732;51.074;3.788;2023-02-01T06:26:48;25.00;;;4.15;;
27225;SDS011;14732;51.074;3.788;2023-02-01T06:29:14;19.40;;;3.47;;
27225;SDS011;14732;51.074;3.788;2023-02-01T06:31:40;26.73;;;4.03;;
27225;SDS011;14732;51.074;3.788;2023-02-01T06:34:07;19.25;;;2.95;;
27225;SDS011;14732;51.074;3.788;2023-02-01T06:36:33;21.58;;;3.97;;
27225;SDS011;14732;51.074;3.788;2023-02-01T06:38:58;20.77;;;3.50;;
27225;SDS011;14732;51.074;3.788;2023-02-01T06:41:24;19.77;;;3.60;;
27225;SDS011;14732;51.074;3.788;2023-02-01T06:43:50;24.70;;;3.92;;
27225;SDS011;14732;51.074;3.788;2023-02-01T06:46:16;24.50;;;3.50;;
27225;SDS011;14732;51.074;3.788;2023-02-01T06:48:42;24.77;;;3.85;;
27225;SDS011;14732;51.074;3.788;2023-02-01T06:51:21;24.63;;;3.60;;
27225;SDS011;14732;51.074;3.788;2023-02-01T06:53:48;27.67;;;3.60;;
27225;SDS011;14732;51.074;3.788;2023-02-01T06:56:14;30.52;;;3.58;;
27225;SDS011;14732;51.074;3.788;2023-02-01T06:58:40;19.58;;;4.05;;
27225;SDS011;14732;51.074;3.788;2023-02-01T07:01:06;29.92;;;4.43;;
27225;SDS011;14732;51.074;3.788;2023-02-01T07:03:33;25.70;;;3.53;;
27225;SDS011;14732;51.074;3.788;2023-02-01T07:05:59;25.48;;;3.60;;
27225;SDS011;14732;51.074;3.788;2023-02-01T07:08:28;24.80;;;3.97;;
27225;SDS011;14732;51.074;3.788;2023-02-01T07:10:55;27.63;;;3.85;;
27225;SDS011;14732;51.074;3.788;2023-02-01T07:13:21;23.83;;;4.03;;
27225;SDS011;14732;51.074;3.788;2023-02-01T07:15:47;26.98;;;3.78;;
27225;SDS011;14732;51.074;3.788;2023-02-01T07:18:15;30.85;;;4.38;;
27225;SDS011;14732;51.074;3.788;2023-02-01T07:20:41;23.93;;;3.93;;
27225;SDS011;14732;51.074;3.788;2023-02-01T07:23:09;26.15;;;3.95;;
27225;SDS011;14732;51.074;3.788;2023-02-01T07:25:35;24.73;;;3.97;;
27225;SDS011;14732;51.074;3.788;2023-02-01T07:28:01;27.10;;;3.33;;
27225;SDS011;14732;51.074;3.788;2023-02-01T07:30:27;15.95;;;3.10;;
27225;SDS011;14732;51.074;3.788;2023-02-01T07:32:53;21.70;;;3.47;;
27225;SDS011;14732;51.074;3.788;2023-02-01T07:35:19;20.70;;;3.90;;
27225;SDS011;14732;51.074;3.788;2023-02-01T07:37:44;29.35;;;3.85;;
27225;SDS011;14732;51.074;3.788;2023-02-01T07:40:10;18.02;;;3.75;;
27225;SDS011;14732;51.074;3.788;2023-02-01T07:42:37;26.70;;;3.58;;
27225;SDS011;14732;51.074;3.788;2023-02-01T07:45:03;27.08;;;3.95;;
27225;SDS011;14732;51.074;3.788;2023-02-01T07:47:29;20.35;;;3.92;;
27225;SDS011;14732;51.074;3.788;2023-02-01T07:49:55;23.90;;;4.20;;
27225;SDS011;14732;51.074;3.788;2023-02-01T07:52:20;24.95;;;3.47;;
27225;SDS011;14732;51.074;3.788;2023-02-01T07:54:46;17.73;;;3.10;;
27225;SDS011;14732;51.074;3.788;2023-02-01T07:57:12;20.35;;;3.95;;
27225;SDS011;14732;51.074;3.788;2023-02-01T07:59:38;28.33;;;3.95;;
27225;SDS011;14732;51.074;3.788;2023-02-01T08:02:26;18.80;;;3.57;;
27225;SDS011;14732;51.074;3.788;2023-02-01T08:04:53;21.58;;;3.40;;
27225;SDS011;14732;51.074;3.788;2023-02-01T08:07:18;20.05;;;3.85;;
27225;SDS011;14732;51.074;3.788;2023-02-01T08:09:44;21.58;;;3.60;;
27225;SDS011;14732;51.074;3.788;2023-02-01T08:12:10;21.60;;;3.92;;
27225;SDS011;14732;51.074;3.788;2023-02-01T08:14:35;19.92;;;3.80;;
27225;SDS011;14732;51.074;3.788;2023-02-01T08:17:01;23.83;;;4.10;;
27225;SDS011;14732;51.074;3.788;2023-02-01T08:19:27;24.13;;;4.00;;
27225;SDS011;14732;51.074;3.788;2023-02-01T08:21:52;22.83;;;3.67;;
27225;SDS011;14732;51.074;3.788;2023-02-01T08:24:18;24.70;;;3.58;;
27225;SDS011;14732;51.074;3.788;2023-02-01T08:26:43;23.20;;;3.95;;
27225;SDS011;14732;51.074;3.788;2023-02-01T08:29:09;24.65;;;3.58;;
27225;SDS011;14732;51.074;3.788;2023-02-01T08:31:37;26.90;;;4.18;;
27225;SDS011;14732;51.074;3.788;2023-02-01T08:34:05;21.23;;;2.90;;
27225;SDS011;14732;51.074;3.788;2023-02-01T08:36:33;25.98;;;3.55;;
27225;SDS011;14732;51.074;3.788;2023-02-01T08:38:59;21.73;;;3.63;;
27225;SDS011;14732;51.074;3.788;2023-02-01T08:41:26;18.65;;;3.47;;
27225;SDS011;14732;51.074;3.788;2023-02-01T08:43:55;21.27;;;3.25;;
27225;SDS011;14732;51.074;3.788;2023-02-01T08:46:21;23.30;;;3.72;;
27225;SDS011;14732;51.074;3.788;2023-02-01T08:48:48;23.38;;;4.10;;
27225;SDS011;14732;51.074;3.788;2023-02-01T08:51:15;21.80;;;3.10;;
27225;SDS011;14732;51.074;3.788;2023-02-01T08:53:42;26.73;;;3.92;;
27225;SDS011;14732;51.074;3.788;2023-02-01T08:56:09;24.02;;;3.97;;
27225;SDS011;14732;51.074;3.788;2023-02-01T08:58:36;23.05;;;3.60;;
27225;SDS011;14732;51.074;3.788;2023-02-01T09:01:05;19.67;;;3.42;;
27225;SDS011;14732;51.074;3.788;2023-02-01T09:03:33;22.45;;;3.35;;
27225;SDS011;14732;51.074;3.788;2023-02-01T09:06:02;13.50;;;3.10;;
27225;SDS011;14732;51.074;3.788;2023-02-01T09:08:30;17.90;;;3.00;;
27225;SDS011;14732;51.074;3.788;2023-02-01T09:11:00;15.98;;;3.03;;
27225;SDS011;14732;51.074;3.788;2023-02-01T09:13:26;15.63;;;2.75;;
27225;SDS011;14732;51.074;3.788;2023-02-01T09:15:52;17.45;;;3.20;;
27225;SDS011;14732;51.074;3.788;2023-02-01T09:18:18;20.88;;;3.13;;
27225;SDS011;14732;51.074;3.788;2023-02-01T09:20:43;21.25;;;3.50;;
27225;SDS011;14732;51.074;3.788;2023-02-01T09:23:09;18.42;;;2.88;;
27225;SDS011;14732;51.074;3.788;2023-02-01T09:25:36;16.75;;;3.30;;
27225;SDS011;14732;51.074;3.788;2023-02-01T09:28:03;14.93;;;2.97;;
27225;SDS011;14732;51.074;3.788;2023-02-01T09:30:31;22.27;;;3.05;;
27225;SDS011;14732;51.074;3.788;2023-02-01T09:32:57;14.32;;;2.63;;
27225;SDS011;14732;51.074;3.788;2023-02-01T09:35:23;14.38;;;2.97;;
27225;SDS011;14732;51.074;3.788;2023-02-01T09:37:48;15.75;;;2.78;;
27225;SDS011;14732;51.074;3.788;2023-02-01T09:40:15;17.17;;;3.03;;
27225;SDS011;14732;51.074;3.788;2023-02-01T09:48:16;12.77;;;2.92;;
27225;SDS011;14732;51.074;3.788;2023-02-01T09:50:38;11.48;;;2.80;;
27225;SDS011;14732;51.074;3.788;2023-02-01T09:55:51;12.35;;;2.55;;
27225;SDS011;14732;51.074;3.788;2023-02-01T09:58:35;19.05;;;3.67;;
27225;SDS011;14732;51.074;3.788;2023-02-01T10:01:04;19.30;;;2.92;;
27225;SDS011;14732;51.074;3.788;2023-02-01T10:03:37;19.02;;;2.38;;
27225;SDS011;14732;51.074;3.788;2023-02-01T10:12:14;24.83;;;3.20;;
27225;SDS011;14732;51.074;3.788;2023-02-01T10:20:39;16.60;;;2.60;;
27225;SDS011;14732;51.074;3.788;2023-02-01T10:26:31;20.88;;;2.90;;
27225;SDS011;14732;51.074;3.788;2023-02-01T10:28:51;16.30;;;2.58;;
27225;SDS011;14732;51.074;3.788;2023-02-01T10:31:23;17.92;;;3.10;;
27225;SDS011;14732;51.074;3.788;2023-02-01T10:33:52;20.15;;;2.97;;
27225;SDS011;14732;51.074;3.788;2023-02-01T10:36:29;19.60;;;3.47;;
27225;SDS011;14732;51.074;3.788;2023-02-01T10:39:01;19.67;;;2.95;;
27225;SDS011;14732;51.074;3.788;2023-02-01T10:41:33;18.58;;;2.88;;
27225;SDS011;14732;51.074;3.788;2023-02-01T10:44:00;12.30;;;2.38;;
27225;SDS011;14732;51.074;3.788;2023-02-01T10:46:29;17.67;;;2.50;;
27225;SDS011;14732;51.074;3.788;2023-02-01T10:48:56;13.38;;;1.60;;
27225;SDS011;14732;51.074;3.788;2023-02-01T10:54:08;13.63;;;1.98;;
27225;SDS011;14732;51.074;3.788;2023-02-01T10:56:41;13.23;;;2.63;;
27225;SDS011;14732;51.074;3.788;2023-02-01T11:01:43;16.63;;;1.77;;
27225;SDS011;14732;51.074;3.788;2023-02-01T11:04:18;15.80;;;2.45;;
27225;SDS011;14732;51.074;3.788;2023-02-01T11:06:50;13.85;;;1.98;;
27225;SDS011;14732;51.074;3.788;2023-02-01T11:09:21;13.35;;;1.92;;
27225;SDS011;14732;51.074;3.788;2023-02-01T11:16:49;13.77;;;2.17;;
27225;SDS011;14732;51.074;3.788;2023-02-01T11:19:20;12.32;;;2.00;;
27225;SDS011;14732;51.074;3.788;2023-02-01T11:21:50;6.40;;;1.83;;
27225;SDS011;14732;51.074;3.788;2023-02-01T11:24:29;13.93;;;1.85;;
27225;SDS011;14732;51.074;3.788;2023-02-01T11:26:59;12.43;;;1.73;;
27225;SDS011;14732;51.074;3.788;2023-02-01T11:29:28;11.18;;;1.98;;
27225;SDS011;14732;51.074;3.788;2023-02-01T11:32:02;8.75;;;1.73;;
27225;SDS011;14732;51.074;3.788;2023-02-01T11:34:35;12.52;;;1.83;;
27225;SDS011;14732;51.074;3.788;2023-02-01T11:37:02;9.13;;;1.42;;
27225;SDS011;14732;51.074;3.788;2023-02-01T11:39:30;11.90;;;1.48;;
27225;SDS011;14732;51.074;3.788;2023-02-01T11:49:44;11.07;;;1.65;;
27225;SDS011;14732;51.074;3.788;2023-02-01T11:54:51;9.90;;;1.90;;
27225;SDS011;14732;51.074;3.788;2023-02-01T11:57:35;11.77;;;1.75;;
27225;SDS011;14732;51.074;3.788;2023-02-01T12:08:09;12.20;;;2.20;;
27225;SDS011;14732;51.074;3.788;2023-02-01T12:21:39;14.90;;;2.20;;
27225;SDS011;14732;51.074;3.788;2023-02-01T12:40:17;9.50;;;1.88;;
27225;SDS011;14732;51.074;3.788;2023-02-01T12:43:02;14.85;;;1.88;;
27225;SDS011;14732;51.074;3.788;2023-02-01T12:45:39;8.80;;;2.17;;
27225;SDS011;14732;51.074;3.788;2023-02-01T12:51:06;11.00;;;2.08;;
27225;SDS011;14732;51.074;3.788;2023-02-01T12:56:02;15.65;;;2.00;;
27225;SDS011;14732;51.074;3.788;2023-02-01T12:58:40;11.57;;;1.60;;
27225;SDS011;14732;51.074;3.788;2023-02-01T13:04:17;9.02;;;1.55;;
27225;SDS011;14732;51.074;3.788;2023-02-01T13:12:26;9.02;;;1.42;;
27225;SDS011;14732;51.074;3.788;2023-02-01T13:15:05;11.48;;;1.70;;
27225;SDS011;14732;51.074;3.788;2023-02-01T13:17:39;9.25;;;1.70;;
27225;SDS011;14732;51.074;3.788;2023-02-01T13:23:43;13.68;;;1.80;;
27225;SDS011;14732;51.074;3.788;2023-02-01T13:25:50;8.25;;;1.95;;
27225;SDS011;14732;51.074;3.788;2023-02-01T13:28:19;15.18;;;2.00;;
27225;SDS011;14732;51.074;3.788;2023-02-01T13:31:03;14.93;;;1.70;;
27225;SDS011;14732;51.074;3.788;2023-02-01T13:33:59;10.13;;;1.45;;
27225;SDS011;14732;51.074;3.788;2023-02-01T13:36:41;10.25;;;1.83;;
27225;SDS011;14732;51.074;3.788;2023-02-01T13:44:29;14.25;;;2.00;;
27225;SDS011;14732;51.074;3.788;2023-02-01T13:46:57;10.77;;;1.48;;
27225;SDS011;14732;51.074;3.788;2023-02-01T13:49:26;20.05;;;1.90;;
27225;SDS011;14732;51.074;3.788;2023-02-01T13:51:57;11.15;;;2.22;;
27225;SDS011;14732;51.074;3.788;2023-02-01T13:56:51;10.93;;;1.75;;
27225;SDS011;14732;51.074;3.788;2023-02-01T14:27:00;12.60;;;2.13;;
27225;SDS011;14732;51.074;3.788;2023-02-01T14:44:50;13.02;;;2.30;;
27225;SDS011;14732;51.074;3.788;2023-02-01T14:52:20;13.27;;;2.15;;
27225;SDS011;14732;51.074;3.788;2023-02-01T14:54:54;16.42;;;2.70;;
27225;SDS011;14732;51.074;3.788;2023-02-01T14:57:23;15.07;;;2.40;;
27225;SDS011;14732;51.074;3.788;2023-02-01T14:59:53;18.10;;;2.55;;
27225;SDS011;14732;51.074;3.788;2023-02-01T15:02:30;15.25;;;2.25;;
27225;SDS011;14732;51.074;3.788;2023-02-01T15:05:00;16.85;;;2.50;;
27225;SDS011;14732;51.074;3.788;2023-02-01T15:07:25;17.17;;;3.55;;
27225;SDS011;14732;51.074;3.788;2023-02-01T15:09:53;15.35;;;2.30;;
27225;SDS011;14732;51.074;3.788;2023-02-01T15:17:36;15.27;;;2.60;;
27225;SDS011;14732;51.074;3.788;2023-02-01T15:22:42;15.73;;;2.30;;
27225;SDS011;14732;51.074;3.788;2023-02-01T15:25:18;12.25;;;2.25;;
27225;SDS011;14732;51.074;3.788;2023-02-01T15:27:55;20.05;;;2.47;;
27225;SDS011;14732;51.074;3.788;2023-02-01T15:35:55;19.27;;;4.00;;
27225;SDS011;14732;51.074;3.788;2023-02-01T15:38:43;17.45;;;2.95;;
27225;SDS011;14732;51.074;3.788;2023-02-01T15:41:14;20.48;;;3.25;;
27225;SDS011;14732;51.074;3.788;2023-02-01T15:43:49;22.00;;;3.55;;
27225;SDS011;14732;51.074;3.788;2023-02-01T15:46:34;13.68;;;3.30;;
27225;SDS011;14732;51.074;3.788;2023-02-01T15:49:01;19.08;;;2.95;;
27225;SDS011;14732;51.074;3.788;2023-02-01T15:51:28;20.42;;;2.78;;
27225;SDS011;14732;51.074;3.788;2023-02-01T15:54:07;21.50;;;2.70;;
27225;SDS011;14732;51.074;3.788;2023-02-01T15:56:44;19.90;;;3.42;;
27225;SDS011;14732;51.074;3.788;2023-02-01T15:59:17;16.95;;;3.00;;
27225;SDS011;14732;51.074;3.788;2023-02-01T16:01:58;17.92;;;3.25;;
27225;SDS011;14732;51.074;3.788;2023-02-01T16:04:24;17.90;;;3.17;;
27225;SDS011;14732;51.074;3.788;2023-02-01T16:06:55;23.65;;;2.63;;
27225;SDS011;14732;51.074;3.788;2023-02-01T16:09:32;12.60;;;2.45;;
27225;SDS011;14732;51.074;3.788;2023-02-01T16:12:03;17.58;;;2.50;;
27225;SDS011;14732;51.074;3.788;2023-02-01T16:14:44;16.23;;;2.60;;
27225;SDS011;14732;51.074;3.788;2023-02-01T16:17:10;21.67;;;3.72;;
27225;SDS011;14732;51.074;3.788;2023-02-01T16:19:36;19.45;;;3.58;;
27225;SDS011;14732;51.074;3.788;2023-02-01T16:22:02;19.77;;;3.17;;
27225;SDS011;14732;51.074;3.788;2023-02-01T16:24:27;17.73;;;2.78;;
27225;SDS011;14732;51.074;3.788;2023-02-01T16:26:53;20.23;;;3.13;;
27225;SDS011;14732;51.074;3.788;2023-02-01T16:29:19;20.67;;;2.83;;
27225;SDS011;14732;51.074;3.788;2023-02-01T16:31:46;23.08;;;3.50;;
27225;SDS011;14732;51.074;3.788;2023-02-01T16:34:14;24.10;;;3.55;;
27225;SDS011;14732;51.074;3.788;2023-02-01T16:39:17;23.55;;;3.55;;
27225;SDS011;14732;51.074;3.788;2023-02-01T16:41:43;17.63;;;2.97;;
27225;SDS011;14732;51.074;3.788;2023-02-01T16:44:10;17.38;;;3.00;;
27225;SDS011;14732;51.074;3.788;2023-02-01T16:46:39;18.42;;;3.17;;
27225;SDS011;14732;51.074;3.788;2023-02-01T16:49:17;13.13;;;2.78;;
27225;SDS011;14732;51.074;3.788;2023-02-01T16:51:50;19.90;;;2.97;;
27225;SDS011;14732;51.074;3.788;2023-02-01T16:54:20;22.52;;;3.20;;
27225;SDS011;14732;51.074;3.788;2023-02-01T16:56:46;21.58;;;3.15;;
27225;SDS011;14732;51.074;3.788;2023-02-01T16:59:11;23.17;;;3.55;;
27225;SDS011;14732;51.074;3.788;2023-02-01T17:01:38;18.48;;;3.17;;
27225;SDS011;14732;51.074;3.788;2023-02-01T17:04:05;21.10;;;3.45;;
27225;SDS011;14732;51.074;3.788;2023-02-01T17:06:31;17.17;;;3.42;;
27225;SDS011;14732;51.074;3.788;2023-02-01T17:08:57;23.00;;;3.22;;
27225;SDS011;14732;51.074;3.788;2023-02-01T17:11:24;28.90;;;3.65;;
27225;SDS011;14732;51.074;3.788;2023-02-01T17:13:51;28.92;;;5.97;;
27225;SDS011;14732;51.074;3.788;2023-02-01T17:18:43;25.08;;;4.43;;
27225;SDS011;14732;51.074;3.788;2023-02-01T17:21:11;21.10;;;4.32;;
27225;SDS011;14732;51.074;3.788;2023-02-01T17:23:37;21.48;;;3.75;;
27225;SDS011;14732;51.074;3.788;2023-02-01T17:26:03;17.20;;;3.65;;
27225;SDS011;14732;51.074;3.788;2023-02-01T17:28:29;25.23;;;4.32;;
27225;SDS011;14732;51.074;3.788;2023-02-01T17:30:55;19.70;;;3.53;;
27225;SDS011;14732;51.074;3.788;2023-02-01T17:33:27;26.27;;;4.85;;
27225;SDS011;14732;51.074;3.788;2023-02-01T17:35:56;23.38;;;3.63;;
27225;SDS011;14732;51.074;3.788;2023-02-01T17:38:22;23.35;;;3.67;;
27225;SDS011;14732;51.074;3.788;2023-02-01T17:40:48;27.52;;;4.15;;
27225;SDS011;14732;51.074;3.788;2023-02-01T17:43:15;22.65;;;4.03;;
27225;SDS011;14732;51.074;3.788;2023-02-01T17:45:45;22.02;;;4.00;;
27225;SDS011;14732;51.074;3.788;2023-02-01T17:48:22;21.98;;;3.65;;
27225;SDS011;14732;51.074;3.788;2023-02-01T17:50:49;22.73;;;4.28;;
27225;SDS011;14732;51.074;3.788;2023-02-01T17:53:24;31.92;;;4.63;;
27225;SDS011;14732;51.074;3.788;2023-02-01T17:55:51;23.10;;;4.05;;
27225;SDS011;14732;51.074;3.788;2023-02-01T17:58:18;33.42;;;4.50;;
27225;SDS011;14732;51.074;3.788;2023-02-01T18:00:45;26.23;;;4.50;;
27225;SDS011;14732;51.074;3.788;2023-02-01T18:03:18;21.90;;;3.95;;